createdAt,value
2023-01-25T00:00:47.011Z,18
2023-01-25T00:10:52.655Z,14
2023-01-25T00:20:58.159Z,15
2023-01-25T00:31:04.814Z,14
2023-01-25T00:41:10.027Z,15
2023-01-25T00:51:15.924Z,15
2023-01-25T01:01:21.338Z,15
2023-01-25T01:11:27.820Z,12
2023-01-25T01:21:31.929Z,14
2023-01-25T01:31:37.908Z,13
2023-01-25T01:41:44.456Z,13
2023-01-25T01:51:50.329Z,12
2023-01-25T02:01:56.565Z,14
2023-01-25T02:12:01.591Z,15
2023-01-25T02:22:06.292Z,14
2023-01-25T02:32:12.762Z,12
2023-01-25T02:42:18.114Z,12
2023-01-25T02:52:23.323Z,13
2023-01-25T03:02:29.385Z,13
2023-01-25T03:12:33.859Z,14
2023-01-25T03:22:38.230Z,15
2023-01-25T03:32:45.240Z,13
2023-01-25T03:42:49.481Z,12
2023-01-25T03:52:57.048Z,13
2023-01-25T04:03:02.642Z,13
2023-01-25T04:13:08.525Z,15
2023-01-25T04:23:14.242Z,13
2023-01-25T04:33:23.175Z,13
2023-01-25T04:43:28.283Z,14
2023-01-25T04:53:35.307Z,12
2023-01-25T05:03:40.608Z,24
2023-01-25T05:13:47.033Z,13
2023-01-25T05:23:50.984Z,11
2023-01-25T05:33:56.619Z,13
2023-01-25T05:44:02.860Z,10
2023-01-25T05:54:06.742Z,13
2023-01-25T06:04:13.732Z,13
2023-01-25T06:14:18.484Z,12
2023-01-25T06:24:27.566Z,12
2023-01-25T06:34:31.171Z,14
2023-01-25T06:44:35.114Z,13
2023-01-25T06:54:42.524Z,18
2023-01-25T07:04:50.560Z,10
2023-01-25T07:14:52.863Z,12
2023-01-25T07:24:58.157Z,13
2023-01-25T07:35:04.274Z,12
2023-01-25T07:45:09.116Z,15
2023-01-25T07:55:13.621Z,11
2023-01-25T08:05:18.103Z,14
2023-01-25T08:15:22.167Z,12
2023-01-25T08:25:26.282Z,14
2023-01-25T08:35:32.370Z,13
2023-01-25T08:45:39.927Z,13
2023-01-25T08:55:44.522Z,13
2023-01-25T09:05:49.757Z,11
2023-01-25T09:15:55.770Z,13
2023-01-25T09:26:01.514Z,14
2023-01-25T09:36:14.873Z,13
2023-01-25T09:46:18.477Z,11
2023-01-25T09:56:24.959Z,14
2023-01-25T10:06:31.208Z,14
2023-01-25T10:16:44.968Z,13
2023-01-25T10:26:41.497Z,18
2023-01-25T10:36:47.909Z,12
2023-01-25T10:46:53.083Z,15
2023-01-25T10:56:59.035Z,13
2023-01-25T11:07:06.999Z,12
2023-01-25T11:17:12.774Z,13
2023-01-25T11:27:17.403Z,13
2023-01-25T11:37:22.628Z,16
2023-01-25T11:47:28.443Z,16
2023-01-25T11:57:31.890Z,14
2023-01-25T12:07:37.828Z,15
2023-01-25T12:17:43.122Z,15
2023-01-25T12:27:49.797Z,15
2023-01-25T12:37:56.159Z,15
2023-01-25T12:48:02.144Z,16
2023-01-25T12:58:08.014Z,16
2023-01-25T13:08:23.156Z,16
2023-01-25T13:18:24.400Z,18
2023-01-25T13:28:28.138Z,19
2023-01-25T13:38:34.493Z,17
2023-01-25T13:48:40.519Z,17
2023-01-25T13:58:47.417Z,18
2023-01-25T14:08:51.788Z,19
2023-01-25T14:18:57.968Z,19
2023-01-25T14:29:03.151Z,19
2023-01-25T14:39:13.312Z,19
2023-01-25T14:49:20.484Z,19
2023-01-25T14:59:40.575Z,21
2023-01-25T15:09:34.711Z,23
2023-01-25T15:19:40.723Z,19
2023-01-25T15:29:46.425Z,19
2023-01-25T15:39:51.269Z,23
2023-01-25T15:49:59.363Z,21
2023-01-25T16:00:05.022Z,19
2023-01-25T16:10:09.759Z,27
2023-01-25T16:20:15.631Z,19
2023-01-25T16:30:23.761Z,24
2023-01-25T16:40:27.698Z,30
2023-01-25T16:50:32.001Z,22
2023-01-25T17:00:39.509Z,24
2023-01-25T17:10:43.481Z,29
2023-01-25T17:20:49.654Z,24
2023-01-25T17:30:54.558Z,26
2023-01-25T17:40:59.970Z,20
2023-01-25T17:51:06.083Z,19
2023-01-25T18:01:13.376Z,20
2023-01-25T18:11:16.984Z,21
2023-01-25T18:21:22.607Z,21
2023-01-25T18:31:28.226Z,27
2023-01-25T18:41:35.881Z,20
2023-01-25T18:51:59.030Z,20
2023-01-25T19:02:05.316Z,19
2023-01-25T19:12:10.836Z,19
2023-01-25T19:22:15.657Z,25
2023-01-25T19:32:21.613Z,19
2023-01-25T19:42:26.610Z,19
2023-01-25T19:52:33.383Z,21
2023-01-25T20:02:38.622Z,21
2023-01-25T20:12:45.112Z,17
2023-01-25T20:22:51.678Z,26
2023-01-25T20:33:14.542Z,22
2023-01-25T20:43:07.068Z,24
2023-01-25T20:53:15.278Z,19
2023-01-25T21:03:21.671Z,22
2023-01-25T21:13:26.620Z,26
2023-01-25T21:23:33.180Z,20
2023-01-25T21:33:38.558Z,24
2023-01-25T21:43:45.997Z,19
2023-01-25T21:53:52.021Z,20
2023-01-25T22:03:58.762Z,20
2023-01-25T22:14:02.522Z,19
2023-01-25T22:24:07.632Z,21
2023-01-25T22:34:14.119Z,19
2023-01-25T22:44:19.998Z,19
2023-01-25T22:54:24.619Z,21
2023-01-25T23:04:32.225Z,25
2023-01-25T23:14:37.184Z,21
2023-01-25T23:24:44.417Z,24
2023-01-25T23:34:48.859Z,22
2023-01-25T23:44:53.220Z,19
2023-01-25T23:54:56.619Z,15
